Latest Weather Observations for Cato Island

IDQ60801

Issued at 1:02 pm EST Tuesday 20 August 2019 (issued every 10 minutes, with the page automatically refreshed every 10 minutes)

About weather observations | Map of weather stations | Latest weather observations for QLD | Other Formats
Station Details ID: 200601 Name: CATO ISLAND Lat: -23.25 Lon: 155.54 Height: 6.3 m
Data from the previous 72 hours. | See also: Recent months for locations in Queensland
Date/Time
EST
Temp
°C
App
Temp
°C
Dew
Point
°C
Rel
Hum
%
Delta-T
°C
Wind Press
QNH
hPa
Press
MSL
hPa
Rain since
9am
mm
Dir  Spd
km/h
Gust
km/h
Spd
kts
Gust
kts
20/01:00pm 21.0 - - - - W 43 50 23 27 1019.1 1019.0 -
20/12:30pm 21.1 - - - - SSE 44 52 24 28 1019.3 1019.2 -
20/12:00pm 20.9 - - - - SE 48 54 26 29 1019.2 1019.1 -
20/11:30am 21.2 - - - - S 46 54 25 29 1019.5 1019.4 -
20/11:00am 21.2 - - - - S 46 52 25 28 1019.6 1019.5 -
20/10:30am 21.4 - - - - SSE 44 52 24 28 1019.9 1019.8 -
20/10:00am 21.2 - - - - S 43 50 23 27 1020.0 1019.9 -
20/09:30am 21.4 - - - - SSE 46 54 25 29 1020.0 1019.9 -
20/09:00am 21.3 - - - - SE 50 61 27 33 1020.0 1019.9 -
20/08:30am 21.6 - - - - S 44 52 24 28 1019.6 1019.5 -
20/08:00am 21.3 - - - - S 43 50 23 27 1019.4 1019.3 -
20/07:30am 21.3 - - - - S 39 46 21 25 1019.3 1019.2 -
20/07:00am 21.0 - - - - S 43 50 23 27 1018.9 1018.8 -
20/06:30am 21.0 - - - - N 44 52 24 28 1018.6 1018.5 -
20/06:00am 21.0 - - - - WNW 44 52 24 28 1018.3 1018.2 -
20/05:30am 21.0 - - - - S 44 54 24 29 1018.1 1018.0 -
20/05:11am 21.0 - - - - - 28 46 15 25 1017.6 - -
20/05:00am 20.8 - - - - S 22 26 12 14 1017.9 1017.8 -
20/04:30am 20.5 - - - - NW 24 28 13 15 1017.8 1017.7 -
20/04:00am 20.3 - - - - SSW 24 30 13 16 1018.0 1017.9 -
20/03:30am 20.5 - - - - SE 30 33 16 18 1018.3 1018.2 -
20/03:00am 19.9 - - - - SSW 26 30 14 16 1018.4 1018.3 -
20/02:30am 19.4 - - - - ESE 20 26 11 14 1018.4 1018.3 -
20/02:00am 19.8 - - - - SSW 13 15 7 8 1017.7 1017.6 -
20/01:30am 19.3 - - - - SE 9 13 5 7 1018.0 1017.9 -
20/01:00am 18.8 - - - - N 15 19 8 10 1018.7 1018.6 -
20/12:30am 18.4 - - - - SW 9 13 5 7 1019.1 1019.0 -
20/12:00am 18.7 - - - - NNW 9 11 5 6 1018.9 1018.8 -
 
Date/Time
EST
Temp
°C
App
Temp
°C
Dew
Point
°C
Rel
Hum
%
Delta-T
°C
Wind Press
QNH
hPa
Press
MSL
hPa
Rain since
9am
mm
Dir  Spd
km/h
Gust
km/h
Spd
kts
Gust
kts
19/11:30pm 19.7 - - - - W 13 17 7 9 1018.6 1018.5 -
19/11:00pm 19.8 - - - - SSW 13 17 7 9 1018.5 1018.4 -
19/10:30pm 19.7 - - - - SW 13 15 7 8 1018.6 1018.5 -
19/10:00pm 19.7 - - - - - 9 13 5 7 1018.7 1018.6 -
19/09:30pm 19.3 - - - - N 6 13 3 7 1018.6 1018.5 -
19/09:00pm 19.6 - - - - CALM 0 0 0 0 1018.8 1018.7 -
19/08:30pm 19.4 - - - - S 2 6 1 3 1018.7 1018.6 -
19/08:00pm 20.1 - - - - S 2 7 1 4 1018.6 1018.5 -
19/07:30pm 20.2 - - - - - 4 7 2 4 1018.4 1018.3 -
19/07:00pm 20.4 - - - - - 9 11 5 6 1018.3 1018.2 -
19/06:30pm 20.7 - - - - - 9 11 5 6 1018.1 1018.0 -
19/06:00pm 20.4 - - - - - 9 11 5 6 1017.7 1017.6 -
19/05:30pm 20.6 - - - - WSW 9 11 5 6 1017.6 1017.5 -
19/05:00pm 20.8 - - - - ESE 7 9 4 5 1017.3 1017.2 -
19/04:30pm 21.1 - - - - S 7 11 4 6 1017.1 1017.0 -
19/04:00pm 21.7 - - - - WSW 7 9 4 5 1016.6 1016.5 -
19/03:30pm 21.9 - - - - S 7 9 4 5 1016.4 1016.3 -
19/03:00pm 22.3 - - - - SSW 9 11 5 6 1016.2 1016.1 -
19/02:30pm 22.3 - - - - S 9 13 5 7 1016.1 1016.0 -
19/02:00pm 22.6 - - - - SSE 9 13 5 7 1016.2 1016.1 -
19/01:30pm 22.6 - - - - W 11 13 6 7 1016.3 1016.2 -
19/01:00pm 23.3 - - - - SSW 9 13 5 7 1016.8 1016.7 -
19/12:30pm 22.6 - - - - WNW 11 13 6 7 1017.1 1017.0 -
19/12:00pm 23.3 - - - - WSW 7 11 4 6 1017.4 1017.3 -
19/11:30am 23.1 - - - - SE 9 11 5 6 1017.9 1017.8 -
19/11:00am 22.9 - - - - SE 9 11 5 6 1018.3 1018.2 -
19/10:30am 23.0 - - - - E 13 17 7 9 1018.7 1018.6 -
19/10:00am 22.6 - - - - SSE 13 15 7 8 1019.0 1018.9 -
19/09:30am 22.8 - - - - - - - - - 1019.1 - -
19/09:00am 21.6 - - - - - - - - - 1018.9 1018.8 -
19/08:30am 21.7 - - - - - - - - - 1018.9 - -
19/08:00am 21.5 - - - - - - - - - 1018.7 1018.6 -
19/07:30am 21.3 - - - - - 13 15 7 8 1018.7 - -
19/07:00am 21.0 - - - - - - - - - 1018.7 1018.6 -
19/06:30am 20.8 - - - - - - - - - 1018.6 - -
19/06:00am 20.4 - - - - - - - - - 1018.4 1018.3 -
19/05:30am 20.3 - - - - - - - - - 1018.3 - -
19/05:00am 20.3 - - - - - - - - - 1018.0 1017.9 -
19/04:30am 20.3 - - - - - - - - - 1017.9 - -
19/04:00am 20.1 - - - - - 15 20 8 11 1018.0 1017.9 -
19/03:30am 20.2 - - - - - - - - - 1017.9 - -
19/03:00am 20.1 - - - - - - - - - 1017.8 1017.7 -
19/02:30am 20.0 - - - - - - - - - 1018.1 - -
19/02:00am 20.0 - - - - - - - - - 1018.4 1018.3 -
19/01:30am 20.0 - - - - - - - - - 1018.6 - -
19/01:00am 20.1 - - - - - - - - - 1018.9 1018.8 -
19/12:30am 20.0 - - - - - - - - - 1019.2 - -
19/12:00am 20.0 - - - - - - - - - 1019.3 1019.2 -
 
Date/Time
EST
Temp
°C
App
Temp
°C
Dew
Point
°C
Rel
Hum
%
Delta-T
°C
Wind Press
QNH
hPa
Press
MSL
hPa
Rain since
9am
mm
Dir  Spd
km/h
Gust
km/h
Spd
kts
Gust
kts
18/11:30pm 20.3 - - - - - - - - - 1019.3 - -
18/11:00pm 20.3 - - - - - - - - - 1019.2 1019.1 -
18/10:30pm 20.2 - - - - - - - - - 1019.2 - -
18/10:00pm 20.4 - - - - - - - - - 1019.2 1019.1 -
18/09:30pm 20.5 - - - - - - - - - 1019.0 - -
18/09:00pm 20.5 - - - - - - - - - 1019.2 1019.1 -
18/08:30pm 20.5 - - - - - - - - - 1019.1 - -
18/08:00pm 20.4 - - - - - - - - - 1019.0 1018.9 -
18/07:30pm 20.4 - - - - - - - - - 1018.7 - -
18/07:00pm 20.4 - - - - - - - - - 1018.4 1018.3 -
18/06:30pm 20.5 - - - - - - - - - 1018.3 - -
18/06:00pm 20.6 - - - - - - - - - 1018.2 1018.1 -
18/05:30pm 20.7 - - - - - - - - - 1018.2 - -
18/05:00pm 20.5 - - - - - 20 26 11 14 1018.1 1018.0 -
18/04:30pm 20.6 - - - - - - - - - 1017.8 - -
18/04:00pm 20.8 - - - - - - - - - 1017.7 1017.6 -
18/03:30pm 20.8 - - - - - - - - - 1017.6 - -
18/03:00pm 21.1 - - - - - - - - - 1017.7 1017.6 -
18/02:30pm 21.0 - - - - - - - - - 1018.1 - -
18/02:00pm 21.3 - - - - - - - - - 1018.3 1018.2 -
18/01:30pm 21.4 - - - - - - - - - 1018.6 - -
18/01:00pm 21.7 - - - - - - - - - 1018.9 1018.8 -
18/12:30pm 22.0 - - - - - - - - - 1019.1 - -
18/12:00pm 21.4 - - - - - - - - - 1019.4 1019.3 -
18/11:30am 21.3 - - - - - - - - - 1019.7 - -
18/11:00am 21.4 - - - - - - - - - 1020.0 1019.9 -
18/10:30am 21.4 - - - - - - - - - 1020.4 - -
18/10:00am 21.2 - - - - - - - - - 1020.4 1020.3 -
18/09:30am 21.4 - - - - - - - - - 1020.7 - -
18/09:00am 21.3 - - - - - - - - - 1020.6 1020.5 -
18/08:30am 21.2 - - - - - - - - - 1020.6 - -
18/08:00am 21.0 - - - - - - - - - 1020.4 1020.3 -
18/07:30am 20.8 - - - - - - - - - 1020.3 - -
18/07:00am 20.5 - - - - - - - - - 1020.0 1019.9 -
18/06:30am 20.1 - - - - - - - - - 1019.6 - -
18/06:00am 19.8 - - - - - - - - - 1019.2 1019.1 -
18/05:30am 19.6 - - - - - - - - - 1018.8 - -
18/05:00am 19.6 - - - - - - - - - 1018.5 1018.4 -
18/04:30am 19.6 - - - - - - - - - 1018.3 - -
18/04:00am 19.6 - - - - - - - - - 1018.2 1018.1 -
18/03:30am 19.6 - - - - - - - - - 1018.2 - -
18/03:00am 19.5 - - - - - - - - - 1018.4 1018.3 -
18/02:30am 19.5 - - - - - - - - - 1018.3 - -
18/02:00am 19.8 - - - - - - - - - 1018.8 1018.7 -
18/01:30am 19.7 - - - - - - - - - 1018.9 - -
18/01:00am 19.8 - - - - - - - - - 1019.2 1019.1 -
18/12:30am 19.8 - - - - - - - - - 1019.5 - -
18/12:00am 19.9 - - - - - - - - - 1019.7 1019.6 -
 
Date/Time
EST
Temp
°C
App
Temp
°C
Dew
Point
°C
Rel
Hum
%
Delta-T
°C
Wind Press
QNH
hPa
Press
MSL
hPa
Rain since
9am
mm
Dir  Spd
km/h
Gust
km/h
Spd
kts
Gust
kts
17/11:30pm 19.9 - - - - - - - - - 1019.8 - -
17/11:00pm 19.9 - - - - - - - - - 1019.9 1019.8 -
17/10:30pm 20.0 - - - - - - - - - 1019.9 - -
17/10:00pm 20.0 - - - - - - - - - 1019.8 1019.7 -
17/09:30pm 19.9 - - - - - - - - - 1019.8 - -
17/09:00pm 20.0 - - - - - - - - - 1019.8 1019.7 -
17/08:30pm 20.0 - - - - - - - - - 1019.6 - -
17/08:00pm 20.0 - - - - - - - - - 1019.5 1019.4 -
17/07:30pm 20.2 - - - - - - - - - 1019.4 - -
17/07:00pm 20.1 - - - - - - - - - 1019.2 1019.1 -
17/06:30pm 20.2 - - - - - - - - - 1018.8 - -
17/06:00pm 20.2 - - - - - - - - - 1018.4 1018.3 -
17/05:30pm 20.3 - - - - - - - - - 1018.0 - -
17/05:00pm 20.3 - - - - - - - - - 1017.8 1017.7 -
17/04:30pm 20.4 - - - - - - - - - 1017.7 - -
17/04:00pm 20.5 - - - - - - - - - 1017.6 1017.5 -
17/03:30pm 20.7 - - - - - - - - - 1017.5 - -
17/03:00pm 20.8 - - - - - - - - - 1017.5 1017.4 -
17/02:30pm 20.8 - - - - - - - - - 1017.7 - -
17/02:00pm 20.9 - - - - - - - - - 1018.0 1017.9 -
17/01:30pm 21.2 - - - - - - - - - 1018.3 - -

Other formats

Comma delimited format used in spreadsheet applications
http://www.bom.gov.au/fwo/IDQ60801/IDQ60801.94394.axf

JavaScript Object Notation format (JSON) in row-major order
http://www.bom.gov.au/fwo/IDQ60801/IDQ60801.94394.json

Data quality

Most of these data are generated automatically and are frequently updated. Quality checks on data are not normally performed. It is possible for incorrect values to appear. Refer to information at About Latest Weather Observations and please check the disclaimer before using these data.